Time;durP1;ratioP1;P1;durP2;ratioP2;P2;SDS_P1;SDS_P2;PMS_P1;PMS_P2;Temp;Humidity;BMP_temperature;BMP_pressure;BME280_temperature;BME280_humidity;BME280_pressure;Samples;Min_cycle;Max_cycle;Signal;HPM_P1;HPM_P2
2023/03/17 00:02:30;0.00;0.00;0.62;0.00;0.00;0.62;1.73;0.90;;;22.40;21.10;;;;;;2264167;61;20456;-56
2023/03/17 00:05:24;0.00;0.00;0.62;0.00;0.00;0.62;1.90;0.90;;;22.40;21.10;;;;;;2264203;61;20950;-61
2023/03/17 00:08:19;0.00;0.00;0.62;0.00;0.00;0.62;1.53;0.93;;;22.40;21.10;;;;;;2263392;61;20427;-59
2023/03/17 00:11:10;0.00;0.00;0.62;0.00;0.00;0.62;1.50;0.87;;;22.40;21.10;;;;;;2263947;61;20368;-58
2023/03/17 00:13:55;0.00;0.00;0.62;0.00;0.00;0.62;1.47;0.90;;;22.40;21.10;;;;;;2257332;61;20807;-60
2023/03/17 00:16:42;0.00;0.00;0.62;0.00;0.00;0.62;1.70;1.00;;;22.40;21.10;;;;;;2264362;61;20371;-57
2023/03/17 00:19:31;0.00;0.00;0.62;0.00;0.00;0.62;1.60;0.90;;;22.40;21.10;;;;;;2263631;61;20384;-60
2023/03/17 00:22:18;0.00;0.00;0.62;0.00;0.00;0.62;1.40;0.73;;;22.40;21.10;;;;;;2260322;61;20364;-57
2023/03/17 00:25:18;0.00;0.00;0.62;0.00;0.00;0.62;1.50;0.80;;;22.40;21.10;;;;;;2263990;61;20986;-59
2023/03/17 00:28:06;0.00;0.00;0.62;0.00;0.00;0.62;1.40;0.80;;;22.40;21.10;;;;;;2263992;61;20442;-56
2023/03/17 00:30:54;0.00;0.00;0.62;0.00;0.00;0.62;1.33;0.73;;;22.40;21.10;;;;;;2260483;61;20455;-57
2023/03/17 00:33:40;0.00;0.00;0.62;0.00;0.00;0.62;1.50;0.90;;;22.40;21.10;;;;;;2264217;61;20376;-58
2023/03/17 00:36:29;0.00;0.00;0.62;0.00;0.00;0.62;1.50;0.80;;;22.40;21.10;;;;;;2263172;61;20414;-58
2023/03/17 00:39:15;0.00;0.00;0.62;0.00;0.00;0.62;1.40;0.80;;;22.40;21.10;;;;;;2263888;61;20389;-60
2023/03/17 00:42:01;0.00;0.00;0.62;0.00;0.00;0.62;1.30;0.70;;;22.40;21.20;;;;;;2264012;61;20414;-58
2023/03/17 00:44:46;0.00;0.00;0.62;0.00;0.00;0.62;1.40;0.70;;;22.40;21.10;;;;;;2263277;61;20476;-60
2023/03/17 00:47:31;0.00;0.00;0.62;0.00;0.00;0.62;1.40;0.77;;;22.40;21.10;;;;;;2264067;61;20395;-59
2023/03/17 00:50:21;0.00;0.00;0.62;0.00;0.00;0.62;1.70;1.20;;;22.40;21.10;;;;;;2263368;61;20360;-55
2023/03/17 00:53:11;0.00;0.00;0.62;0.00;0.00;0.62;1.60;0.90;;;22.40;21.10;;;;;;2264011;61;20367;-61
2023/03/17 00:55:56;0.00;0.00;0.62;0.00;0.00;0.62;1.40;0.87;;;22.30;21.10;;;;;;2263766;61;20439;-61
2023/03/17 00:58:43;0.00;0.00;0.62;0.00;0.00;0.62;1.47;0.80;;;22.30;21.10;;;;;;2263194;61;20955;-59
2023/03/17 01:01:28;0.00;0.00;0.62;0.00;0.00;0.62;1.30;0.80;;;22.40;21.10;;;;;;2264304;61;20416;-57
2023/03/17 01:04:14;0.00;0.00;0.62;0.00;0.00;0.62;1.37;0.70;;;22.40;21.10;;;;;;2264485;61;20756;-59
2023/03/17 01:06:59;0.00;0.00;0.62;0.00;0.00;0.62;1.93;0.80;;;22.30;21.10;;;;;;2264033;61;20368;-56
2023/03/17 01:09:44;0.00;0.00;0.62;0.00;0.00;0.62;1.33;0.80;;;22.30;21.10;;;;;;2264324;61;20410;-61
2023/03/17 01:12:29;0.00;0.00;0.62;0.00;0.00;0.62;1.80;1.10;;;22.30;21.10;;;;;;2264596;61;20462;-55
2023/03/17 01:15:16;0.00;0.00;0.62;0.00;0.00;0.62;1.60;1.00;;;22.30;21.10;;;;;;2264690;61;20465;-60
2023/03/17 01:18:01;0.00;0.00;0.62;0.00;0.00;0.62;1.40;0.90;;;22.30;21.10;;;;;;2261317;61;20380;-61
2023/03/17 01:20:47;0.00;0.00;0.62;0.00;0.00;0.62;1.50;0.80;;;22.30;21.10;;;;;;2263707;61;20881;-57
2023/03/17 01:23:32;0.00;0.00;0.62;0.00;0.00;0.62;1.80;1.10;;;22.30;21.10;;;;;;2264602;61;20376;-60
2023/03/17 01:26:17;0.00;0.00;0.62;0.00;0.00;0.62;1.50;0.83;;;22.30;21.00;;;;;;2264542;61;20383;-60
2023/03/17 01:29:03;0.00;0.00;0.62;0.00;0.00;0.62;1.60;0.80;;;22.30;21.10;;;;;;2263548;61;20396;-60
2023/03/17 01:31:49;0.00;0.00;0.62;0.00;0.00;0.62;1.40;0.80;;;22.30;21.00;;;;;;2261558;61;20364;-58
2023/03/17 01:34:34;0.00;0.00;0.62;0.00;0.00;0.62;1.40;0.70;;;22.30;21.10;;;;;;2261250;61;20384;-58
2023/03/17 01:37:21;0.00;0.00;0.62;0.00;0.00;0.62;1.40;0.80;;;22.30;21.10;;;;;;2264648;61;20367;-54
2023/03/17 01:40:08;0.00;0.00;0.62;0.00;0.00;0.62;1.30;0.70;;;22.30;21.00;;;;;;2264213;61;21004;-61
2023/03/17 01:42:59;0.00;0.00;0.62;0.00;0.00;0.62;1.30;0.80;;;22.30;21.00;;;;;;2260794;61;20834;-61
2023/03/17 01:46:19;0.00;0.00;0.62;0.00;0.00;0.62;1.40;0.90;;;22.30;21.00;;;;;;2264384;61;20383;-61
2023/03/17 01:49:18;0.00;0.00;0.62;0.00;0.00;0.62;1.43;0.90;;;22.30;21.00;;;;;;2264119;61;20427;-59
2023/03/17 01:52:08;0.00;0.00;0.62;0.00;0.00;0.62;1.53;0.80;;;22.30;21.10;;;;;;2264436;61;20369;-56
2023/03/17 01:54:56;0.00;0.00;0.62;0.00;0.00;0.62;1.40;0.80;;;22.30;21.00;;;;;;2264440;61;20443;-61
2023/03/17 01:57:45;0.00;0.00;0.62;0.00;0.00;0.62;1.40;0.80;;;22.20;21.50;;;;;;2260653;61;20921;-54
2023/03/17 02:00:31;0.00;0.00;0.62;0.00;0.00;0.62;1.50;0.90;;;22.20;21.00;;;;;;2260718;61;20644;-57
2023/03/17 02:03:17;0.00;0.00;0.62;0.00;0.00;0.62;1.40;0.70;;;22.20;21.00;;;;;;2264640;61;20935;-57
2023/03/17 02:06:06;0.00;0.00;0.62;0.00;0.00;0.62;1.40;0.77;;;22.30;21.00;;;;;;2281922;40;20853;-62
2023/03/17 02:08:51;0.00;0.00;0.62;0.00;0.00;0.62;1.80;0.93;;;22.20;21.00;;;;;;2268173;61;20471;-61
2023/03/17 02:11:37;0.00;0.00;0.62;0.00;0.00;0.62;1.63;0.93;;;22.20;21.00;;;;;;2268380;61;20776;-54
2023/03/17 02:14:23;0.00;0.00;0.62;0.00;0.00;0.62;1.50;0.90;;;22.20;21.00;;;;;;2267666;61;20391;-54
2023/03/17 02:17:08;0.00;0.00;0.62;0.00;0.00;0.62;1.40;0.73;;;22.20;21.00;;;;;;2271042;61;20394;-58
2023/03/17 02:19:55;0.00;0.00;0.62;0.00;0.00;0.62;1.80;1.00;;;22.20;21.00;;;;;;2267595;61;20451;-60
2023/03/17 02:22:42;0.00;0.00;0.62;0.00;0.00;0.62;1.50;0.90;;;22.20;21.00;;;;;;2268497;61;20891;-59
2023/03/17 02:25:29;0.00;0.00;0.62;0.00;0.00;0.62;1.50;0.83;;;22.20;21.00;;;;;;2270965;60;20383;-60
2023/03/17 02:28:18;0.00;0.00;0.62;0.00;0.00;0.62;1.60;0.97;;;22.20;21.00;;;;;;2267728;61;20425;-60
2023/03/17 02:31:03;0.00;0.00;0.62;0.00;0.00;0.62;1.40;0.80;;;22.20;21.00;;;;;;2270734;61;20360;-60
2023/03/17 02:33:48;0.00;0.00;0.62;0.00;0.00;0.62;1.40;0.87;;;22.20;21.00;;;;;;2268274;61;20363;-57
2023/03/17 02:36:33;0.00;0.00;0.62;0.00;0.00;0.62;1.50;1.00;;;22.20;21.00;;;;;;2268365;61;20363;-57
2023/03/17 02:39:19;0.00;0.00;0.62;0.00;0.00;0.62;1.40;0.80;;;22.20;21.00;;;;;;2268006;61;20378;-57
2023/03/17 02:42:06;0.00;0.00;0.62;0.00;0.00;0.62;1.57;0.83;;;22.20;21.00;;;;;;2270154;61;20371;-61
2023/03/17 02:44:52;0.00;0.00;0.62;0.00;0.00;0.62;1.40;0.80;;;22.20;21.00;;;;;;2270739;60;20401;-56
2023/03/17 02:47:37;0.00;0.00;0.62;0.00;0.00;0.62;1.53;0.90;;;22.20;21.00;;;;;;2265069;61;20734;-56
2023/03/17 02:50:26;0.00;0.00;0.62;0.00;0.00;0.62;1.30;0.60;;;22.20;21.00;;;;;;2267261;61;20358;-59
2023/03/17 02:53:11;0.00;0.00;0.62;0.00;0.00;0.62;1.40;0.83;;;22.20;21.00;;;;;;2268336;61;20389;-54
2023/03/17 02:55:58;0.00;0.00;0.62;0.00;0.00;0.62;1.50;1.03;;;22.20;21.00;;;;;;2268383;61;20418;-57
2023/03/17 02:58:42;0.00;0.00;0.62;0.00;0.00;0.62;1.43;0.87;;;22.20;21.00;;;;;;2268319;61;20405;-58
2023/03/17 03:01:28;0.00;0.00;0.62;0.00;0.00;0.62;1.70;1.10;;;22.20;21.00;;;;;;2268427;61;20395;-60
2023/03/17 03:04:12;0.00;0.00;0.62;0.00;0.00;0.62;1.40;0.80;;;22.20;21.00;;;;;;2267451;61;20779;-60
2023/03/17 03:06:57;0.00;0.00;0.62;0.00;0.00;0.62;1.83;1.00;;;22.20;21.00;;;;;;2268239;61;20375;-59
2023/03/17 03:09:42;0.00;0.00;0.62;0.00;0.00;0.62;1.40;0.83;;;22.10;21.00;;;;;;2267952;61;20390;-60
2023/03/17 03:12:27;0.00;0.00;0.62;0.00;0.00;0.62;1.27;0.80;;;22.10;21.00;;;;;;2267677;61;20359;-55
2023/03/17 03:15:13;0.00;0.00;0.62;0.00;0.00;0.62;1.60;0.97;;;22.20;21.00;;;;;;2268396;61;20390;-60
2023/03/17 03:17:58;0.00;0.00;0.62;0.00;0.00;0.62;1.47;0.80;;;22.20;21.00;;;;;;2268417;61;20398;-61
2023/03/17 03:20:44;0.00;0.00;0.62;0.00;0.00;0.62;2.03;0.80;;;22.20;21.00;;;;;;2267544;61;20363;-60
2023/03/17 03:23:28;0.00;0.00;0.62;0.00;0.00;0.62;1.53;0.83;;;22.20;21.10;;;;;;2268252;61;20359;-60
2023/03/17 03:26:13;0.00;0.00;0.62;0.00;0.00;0.62;1.40;0.80;;;22.10;21.00;;;;;;2267447;61;20454;-58
2023/03/17 03:29:00;0.00;0.00;0.62;0.00;0.00;0.62;1.30;0.70;;;22.10;21.00;;;;;;2267717;61;20405;-59
2023/03/17 03:31:46;0.00;0.00;0.62;0.00;0.00;0.62;1.50;0.80;;;22.10;21.50;;;;;;2268356;61;20907;-57
2023/03/17 03:34:32;0.00;0.00;0.62;0.00;0.00;0.62;1.60;0.90;;;22.10;21.00;;;;;;2267459;61;20386;-60
2023/03/17 03:37:16;0.00;0.00;0.62;0.00;0.00;0.62;1.40;0.80;;;22.10;21.00;;;;;;2268345;61;20367;-56
2023/03/17 03:40:01;0.00;0.00;0.62;0.00;0.00;0.62;1.30;0.90;;;22.10;21.00;;;;;;2267985;61;20394;-60
2023/03/17 03:42:46;0.00;0.00;0.62;0.00;0.00;0.62;2.27;0.70;;;22.10;21.00;;;;;;2267800;61;20363;-59
2023/03/17 03:45:33;0.00;0.00;0.62;0.00;0.00;0.62;1.30;0.80;;;22.10;21.00;;;;;;2268218;61;20831;-55
2023/03/17 03:48:18;0.00;0.00;0.62;0.00;0.00;0.62;2.00;1.00;;;22.10;21.00;;;;;;2267531;61;20390;-56
2023/03/17 03:51:03;0.00;0.00;0.62;0.00;0.00;0.62;1.40;0.80;;;22.10;21.00;;;;;;2267822;61;20573;-60
2023/03/17 03:53:48;0.00;0.00;0.62;0.00;0.00;0.62;1.40;0.70;;;22.10;21.00;;;;;;2268260;61;21062;-59
2023/03/17 03:56:32;0.00;0.00;0.62;0.00;0.00;0.62;1.30;0.70;;;22.10;21.00;;;;;;2267704;61;20401;-56
2023/03/17 03:59:17;0.00;0.00;0.62;0.00;0.00;0.62;1.40;0.80;;;22.10;21.00;;;;;;2267860;61;20930;-55
2023/03/17 04:02:05;0.00;0.00;0.62;0.00;0.00;0.62;1.40;0.77;;;22.10;21.00;;;;;;2268235;61;20798;-62
2023/03/17 04:04:50;0.00;0.00;0.62;0.00;0.00;0.62;1.37;0.77;;;22.10;21.00;;;;;;2267491;61;20927;-57
2023/03/17 04:07:35;0.00;0.00;0.62;0.00;0.00;0.62;1.30;0.70;;;22.10;21.00;;;;;;2268091;61;20379;-56
2023/03/17 04:10:20;0.00;0.00;0.62;0.00;0.00;0.62;1.37;0.70;;;22.10;21.00;;;;;;2267232;61;20367;-57
2023/03/17 04:13:05;0.00;0.00;0.62;0.00;0.00;0.62;1.20;0.70;;;22.10;21.00;;;;;;2268220;61;20359;-58
2023/03/17 04:15:49;0.00;0.00;0.62;0.00;0.00;0.62;1.50;0.80;;;22.10;21.00;;;;;;2268305;61;20382;-60
2023/03/17 04:18:36;0.00;0.00;0.62;0.00;0.00;0.62;1.40;0.80;;;22.10;21.00;;;;;;2267035;61;20389;-59
2023/03/17 04:21:21;0.00;0.00;0.62;0.00;0.00;0.62;1.20;0.60;;;22.10;21.00;;;;;;2268157;61;20367;-58
2023/03/17 04:24:07;0.00;0.00;0.62;0.00;0.00;0.62;1.97;0.80;;;22.10;21.00;;;;;;2268120;61;20382;-58
2023/03/17 04:26:52;0.00;0.00;0.62;0.00;0.00;0.62;1.40;0.80;;;22.10;21.00;;;;;;2267611;61;21021;-66
2023/03/17 04:29:37;0.00;0.00;0.62;0.00;0.00;0.62;1.57;0.83;;;22.10;21.00;;;;;;2267925;61;20468;-58
2023/03/17 04:32:21;0.00;0.00;0.62;0.00;0.00;0.62;1.40;0.73;;;22.10;21.00;;;;;;2267754;61;20370;-55
2023/03/17 04:35:12;0.00;0.00;0.62;0.00;0.00;0.62;1.30;0.70;;;22.10;21.10;;;;;;2268164;61;20391;-58
2023/03/17 04:37:57;0.00;0.00;0.62;0.00;0.00;0.62;1.93;0.80;;;22.10;21.00;;;;;;2268431;61;20379;-58
2023/03/17 04:40:41;0.00;0.00;0.62;0.00;0.00;0.62;1.50;0.80;;;22.10;21.00;;;;;;2267813;61;20831;-57
2023/03/17 04:43:26;0.00;0.00;0.62;0.00;0.00;0.62;1.23;0.63;;;22.00;21.00;;;;;;2268696;61;20776;-63
2023/03/17 04:46:11;0.00;0.00;0.62;0.00;0.00;0.62;1.40;0.80;;;22.10;21.00;;;;;;2268591;61;20414;-62
2023/03/17 04:48:56;0.00;0.00;0.62;0.00;0.00;0.62;1.30;0.73;;;22.10;21.00;;;;;;2267815;61;20440;-60
2023/03/17 04:51:42;0.00;0.00;0.62;0.00;0.00;0.62;1.30;0.70;;;22.10;21.00;;;;;;2268960;61;20900;-59
2023/03/17 04:54:27;0.00;0.00;0.62;0.00;0.00;0.62;1.30;0.70;;;22.10;21.00;;;;;;2268579;61;20387;-62
2023/03/17 04:57:11;0.00;0.00;0.62;0.00;0.00;0.62;2.07;1.20;;;22.10;21.00;;;;;;2268805;61;20456;-57
2023/03/17 04:59:56;0.00;0.00;0.62;0.00;0.00;0.62;1.30;0.80;;;22.10;21.00;;;;;;2268275;61;20355;-57
2023/03/17 05:02:41;0.00;0.00;0.62;0.00;0.00;0.62;1.40;0.80;;;22.00;21.00;;;;;;2268117;61;20451;-56
2023/03/17 05:05:26;0.00;0.00;0.62;0.00;0.00;0.62;1.43;0.77;;;22.00;21.00;;;;;;2268749;61;20442;-64
2023/03/17 05:08:12;0.00;0.00;0.62;0.00;0.00;0.62;1.30;0.70;;;22.10;21.00;;;;;;2268681;61;20970;-57
2023/03/17 05:10:58;0.00;0.00;0.62;0.00;0.00;0.62;1.23;0.63;;;22.00;21.00;;;;;;2267808;61;20405;-55
2023/03/17 05:13:42;0.00;0.00;0.62;0.00;0.00;0.62;1.40;0.73;;;22.10;21.10;;;;;;2268160;61;20367;-62
2023/03/17 05:16:27;0.00;0.00;0.62;0.00;0.00;0.62;1.50;0.80;;;22.00;21.00;;;;;;2268768;61;20441;-57
2023/03/17 05:19:11;0.00;0.00;0.62;0.00;0.00;0.62;1.40;0.80;;;22.10;21.00;;;;;;2268124;61;20355;-57
2023/03/17 05:21:56;0.00;0.00;0.62;0.00;0.00;0.62;1.40;0.80;;;22.00;21.00;;;;;;2268576;61;20451;-58
2023/03/17 05:24:42;0.00;0.00;0.62;0.00;0.00;0.62;1.30;0.77;;;22.00;21.00;;;;;;2268047;61;20375;-59
2023/03/17 05:27:28;0.00;0.00;0.62;0.00;0.00;0.62;1.60;0.90;;;22.00;21.00;;;;;;2268620;61;20415;-55
2023/03/17 05:30:14;0.00;0.00;0.62;0.00;0.00;0.62;1.40;0.80;;;22.00;21.00;;;;;;2268140;61;20443;-56
2023/03/17 05:32:59;0.00;0.00;0.62;0.00;0.00;0.62;2.03;1.13;;;22.00;21.00;;;;;;2268133;61;20383;-58
2023/03/17 05:35:45;0.00;0.00;0.62;0.00;0.00;0.62;1.53;0.80;;;22.00;21.00;;;;;;2268643;61;20419;-59
2023/03/17 05:38:29;0.00;0.00;0.62;0.00;0.00;0.62;1.30;0.77;;;22.00;21.00;;;;;;2268672;61;20359;-56
2023/03/17 05:41:15;0.00;0.00;0.62;0.00;0.00;0.62;1.47;0.77;;;22.00;21.00;;;;;;2267970;61;20481;-58
2023/03/17 05:44:00;0.00;0.00;0.62;0.00;0.00;0.62;1.30;0.70;;;22.00;21.00;;;;;;2270885;61;20375;-56
2023/03/17 05:46:45;0.00;0.00;0.62;0.00;0.00;0.62;1.40;0.80;;;22.00;21.00;;;;;;2267769;61;20494;-59
2023/03/17 05:49:30;0.00;0.00;0.62;0.00;0.00;0.62;1.20;0.70;;;22.00;21.00;;;;;;2268245;61;20486;-63
2023/03/17 05:52:14;0.00;0.00;0.62;0.00;0.00;0.62;1.63;0.60;;;22.00;21.00;;;;;;2268570;61;20359;-57
2023/03/17 05:54:59;0.00;0.00;0.62;0.00;0.00;0.62;1.20;0.60;;;22.00;21.00;;;;;;2267713;61;20953;-56
2023/03/17 05:57:46;0.00;0.00;0.62;0.00;0.00;0.62;1.47;0.77;;;22.00;21.00;;;;;;2268654;61;20356;-59
2023/03/17 06:00:31;0.00;0.00;0.62;0.00;0.00;0.62;1.30;0.70;;;22.00;21.00;;;;;;2268307;61;20417;-59
2023/03/17 06:03:16;0.00;0.00;0.62;0.00;0.00;0.62;1.50;0.80;;;22.00;21.00;;;;;;2267911;61;20886;-55
2023/03/17 06:06:00;0.00;0.00;0.62;0.00;0.00;0.62;1.50;0.80;;;22.00;21.00;;;;;;2268805;61;20954;-55
2023/03/17 06:08:45;0.00;0.00;0.62;0.00;0.00;0.62;1.60;0.90;;;22.00;21.00;;;;;;2267500;61;20507;-60
2023/03/17 06:11:30;0.00;0.00;0.62;0.00;0.00;0.62;1.47;0.87;;;22.00;21.10;;;;;;2268532;61;20443;-60
2023/03/17 06:14:17;0.00;0.00;0.62;0.00;0.00;0.62;1.30;0.70;;;22.00;21.00;;;;;;2268542;61;20490;-59
2023/03/17 06:17:02;0.00;0.00;0.62;0.00;0.00;0.62;1.30;0.70;;;22.00;21.00;;;;;;2267883;61;20371;-60
2023/03/17 06:19:47;0.00;0.00;0.62;0.00;0.00;0.62;1.50;0.80;;;22.00;21.00;;;;;;2268176;61;20394;-57
2023/03/17 06:22:32;0.00;0.00;0.62;0.00;0.00;0.62;1.30;0.70;;;22.00;21.10;;;;;;2268605;61;20430;-59
2023/03/17 06:25:17;0.00;0.00;0.62;0.00;0.00;0.62;1.30;0.70;;;22.00;21.00;;;;;;2267401;61;20379;-58
2023/03/17 06:28:04;0.00;0.00;0.62;0.00;0.00;0.62;1.50;0.80;;;22.00;21.00;;;;;;2268413;61;20363;-63
2023/03/17 06:30:50;0.00;0.00;0.62;0.00;0.00;0.62;1.47;0.77;;;22.00;21.00;;;;;;2267565;61;20917;-55
2023/03/17 06:33:34;0.00;0.00;0.62;0.00;0.00;0.62;1.30;0.70;;;22.00;21.10;;;;;;2268492;61;20409;-60
2023/03/17 06:36:19;0.00;0.00;0.62;0.00;0.00;0.62;1.50;0.90;;;22.00;21.00;;;;;;2268430;61;20433;-62
2023/03/17 06:39:05;0.00;0.00;0.62;0.00;0.00;0.62;1.40;0.70;;;22.00;21.00;;;;;;2267390;61;20440;-60
2023/03/17 06:41:50;0.00;0.00;0.62;0.00;0.00;0.62;1.30;0.73;;;22.00;21.00;;;;;;2268561;61;20449;-57
2023/03/17 06:44:36;0.00;0.00;0.62;0.00;0.00;0.62;1.50;0.80;;;22.00;21.00;;;;;;2270680;61;20781;-60
2023/03/17 06:47:22;0.00;0.00;0.62;0.00;0.00;0.62;1.40;0.73;;;22.00;21.10;;;;;;2267793;61;20424;-57
2023/03/17 06:50:08;0.00;0.00;0.62;0.00;0.00;0.62;1.30;0.70;;;22.00;21.10;;;;;;2268214;61;20387;-56
2023/03/17 06:52:53;0.00;0.00;0.62;0.00;0.00;0.62;1.30;0.70;;;22.00;21.10;;;;;;2268483;61;20425;-61
2023/03/17 06:55:38;0.00;0.00;0.62;0.00;0.00;0.62;1.40;0.87;;;22.00;21.10;;;;;;2268452;61;20390;-54
2023/03/17 06:58:23;0.00;0.00;0.62;0.00;0.00;0.62;1.20;0.70;;;22.00;21.10;;;;;;2268248;61;20440;-56
2023/03/17 07:01:08;0.00;0.00;0.62;0.00;0.00;0.62;1.40;0.80;;;22.00;21.10;;;;;;2267504;61;20972;-57
2023/03/17 07:03:54;0.00;0.00;0.62;0.00;0.00;0.62;1.30;0.80;;;22.00;21.10;;;;;;2268675;61;20477;-56
2023/03/17 07:06:39;0.00;0.00;0.62;0.00;0.00;0.62;1.30;0.80;;;22.00;21.10;;;;;;2268225;61;20913;-54
2023/03/17 07:09:24;0.00;0.00;0.62;0.00;0.00;0.62;1.33;0.80;;;22.00;21.10;;;;;;2267511;61;20386;-58
2023/03/17 07:12:09;0.00;0.00;0.62;0.00;0.00;0.62;2.37;0.80;;;22.00;21.10;;;;;;2268198;61;20367;-56
2023/03/17 07:14:54;0.00;0.00;0.62;0.00;0.00;0.62;1.40;0.70;;;22.00;21.10;;;;;;2268238;61;20374;-54
2023/03/17 07:17:38;0.00;0.00;0.62;0.00;0.00;0.62;1.47;0.80;;;22.00;21.00;;;;;;2270674;61;20363;-57
2023/03/17 07:20:24;0.00;0.00;0.62;0.00;0.00;0.62;1.40;0.90;;;22.00;21.10;;;;;;2267871;61;20401;-60
2023/03/17 07:23:12;0.00;0.00;0.62;0.00;0.00;0.62;1.77;0.93;;;22.00;21.00;;;;;;2267861;61;20408;-57
2023/03/17 07:25:57;0.00;0.00;0.62;0.00;0.00;0.62;1.30;0.70;;;22.00;21.10;;;;;;2268434;61;20418;-59
2023/03/17 07:28:42;0.00;0.00;0.62;0.00;0.00;0.62;1.30;0.90;;;22.00;21.10;;;;;;2268390;61;20457;-55
2023/03/17 07:31:27;0.00;0.00;0.62;0.00;0.00;0.62;1.50;0.80;;;22.00;21.00;;;;;;2267695;61;20383;-56
2023/03/17 07:34:11;0.00;0.00;0.62;0.00;0.00;0.62;1.30;0.80;;;22.00;21.00;;;;;;2268155;61;20881;-57
2023/03/17 07:36:57;0.00;0.00;0.62;0.00;0.00;0.62;1.40;0.80;;;22.00;21.00;;;;;;2268320;61;20451;-59
2023/03/17 07:39:42;0.00;0.00;0.62;0.00;0.00;0.62;2.07;1.00;;;22.00;21.00;;;;;;2267692;61;20406;-59
2023/03/17 07:42:27;0.00;0.00;0.62;0.00;0.00;0.62;1.40;0.80;;;22.00;21.00;;;;;;2267790;61;20771;-56
2023/03/17 07:45:13;0.00;0.00;0.62;0.00;0.00;0.62;1.40;0.90;;;22.00;21.00;;;;;;2267668;61;20787;-60
2023/03/17 07:47:57;0.00;0.00;0.62;0.00;0.00;0.62;1.30;0.80;;;22.00;21.00;;;;;;2268194;61;20367;-60
2023/03/17 07:50:43;0.00;0.00;0.62;0.00;0.00;0.62;1.40;0.80;;;22.00;21.00;;;;;;2267970;61;20368;-56
2023/03/17 07:53:29;0.00;0.00;0.62;0.00;0.00;0.62;1.40;1.00;;;22.00;21.00;;;;;;2267199;61;20879;-57
2023/03/17 07:56:14;0.00;0.00;0.62;0.00;0.00;0.62;1.53;0.87;;;22.00;21.00;;;;;;2268362;61;20400;-58
2023/03/17 07:58:59;0.00;0.00;0.62;0.00;0.00;0.62;2.07;1.20;;;22.00;21.00;;;;;;2268057;61;20437;-60
2023/03/17 08:01:45;0.00;0.00;0.62;0.00;0.00;0.62;1.60;0.80;;;22.00;21.00;;;;;;2267696;61;20371;-60
2023/03/17 08:04:29;0.00;0.00;0.62;0.00;0.00;0.62;1.30;0.80;;;22.00;21.00;;;;;;2268166;61;20471;-55
2023/03/17 08:07:14;0.00;0.00;0.62;0.00;0.00;0.62;1.70;1.00;;;22.00;21.00;;;;;;2267385;61;20780;-58
2023/03/17 08:10:00;0.00;0.00;0.62;0.00;0.00;0.62;1.50;1.00;;;22.10;21.10;;;;;;2267967;61;20387;-55
2023/03/17 08:12:45;0.00;0.00;0.62;0.00;0.00;0.62;1.80;1.10;;;22.00;21.00;;;;;;2268706;61;20386;-59
2023/03/17 08:15:30;0.00;0.00;0.62;0.00;0.00;0.62;1.50;1.07;;;22.10;21.00;;;;;;2268204;61;20429;-60
2023/03/17 08:18:14;0.00;0.00;0.62;0.00;0.00;0.62;1.57;0.90;;;22.10;21.00;;;;;;2271514;61;20371;-57
2023/03/17 08:20:59;0.00;0.00;0.62;0.00;0.00;0.62;1.63;1.13;;;22.10;21.10;;;;;;2265285;61;20405;-57
2023/03/17 08:23:44;0.00;0.00;0.62;0.00;0.00;0.62;2.70;1.20;;;22.00;21.00;;;;;;2268199;61;20366;-57
2023/03/17 08:26:31;0.00;0.00;0.62;0.00;0.00;0.62;1.67;1.00;;;22.10;21.00;;;;;;2268789;61;20409;-58
2023/03/17 08:29:15;0.00;0.00;0.62;0.00;0.00;0.62;1.80;1.27;;;22.10;21.10;;;;;;2267829;61;20508;-57
2023/03/17 08:32:00;0.00;0.00;0.62;0.00;0.00;0.62;1.63;1.00;;;22.00;21.00;;;;;;2269038;61;20363;-58
2023/03/17 08:34:47;0.00;0.00;0.62;0.00;0.00;0.62;1.57;1.10;;;22.10;21.10;;;;;;2268825;61;20533;-57
2023/03/17 08:37:32;0.00;0.00;0.62;0.00;0.00;0.62;1.60;1.20;;;22.10;21.10;;;;;;2268347;61;20401;-55
2023/03/17 08:40:18;0.00;0.00;0.62;0.00;0.00;0.62;1.70;1.20;;;22.10;21.10;;;;;;2268577;61;20350;-60
2023/03/17 08:43:06;0.00;0.00;0.62;0.00;0.00;0.62;2.17;1.30;;;22.10;21.10;;;;;;2269060;61;20891;-60
2023/03/17 08:45:51;0.00;0.00;0.62;0.00;0.00;0.62;1.80;0.93;;;22.10;21.10;;;;;;2267977;61;20383;-58
2023/03/17 08:48:36;0.00;0.00;0.62;0.00;0.00;0.62;2.10;1.30;;;22.10;21.10;;;;;;2268743;61;20455;-61
2023/03/17 08:51:22;0.00;0.00;0.62;0.00;0.00;0.62;2.00;1.23;;;22.10;21.10;;;;;;2268573;61;20363;-58
2023/03/17 08:54:07;0.00;0.00;0.62;0.00;0.00;0.62;1.53;0.93;;;22.10;21.10;;;;;;2268809;61;20417;-58
2023/03/17 08:56:51;0.00;0.00;0.62;0.00;0.00;0.62;2.00;1.20;;;22.10;21.10;;;;;;2268957;61;20359;-60
2023/03/17 08:59:37;0.00;0.00;0.62;0.00;0.00;0.62;2.97;1.33;;;22.10;21.10;;;;;;2267653;61;20776;-60
2023/03/17 09:02:22;0.00;0.00;0.62;0.00;0.00;0.62;1.60;1.10;;;22.10;21.20;;;;;;2268749;61;20375;-58
2023/03/17 09:05:08;0.00;0.00;0.62;0.00;0.00;0.62;1.87;1.13;;;22.10;21.20;;;;;;2268737;61;20429;-60
2023/03/17 09:07:53;0.00;0.00;0.62;0.00;0.00;0.62;1.67;1.00;;;22.10;21.20;;;;;;2267926;61;20785;-60
2023/03/17 09:10:38;0.00;0.00;0.62;0.00;0.00;0.62;1.60;1.07;;;22.10;21.20;;;;;;2268478;61;20847;-60
2023/03/17 09:13:22;0.00;0.00;0.62;0.00;0.00;0.62;2.20;1.30;;;22.10;21.20;;;;;;2268700;61;20367;-59
2023/03/17 09:16:09;0.00;0.00;0.62;0.00;0.00;0.62;1.87;1.17;;;22.10;21.20;;;;;;2268632;61;20383;-59
2023/03/17 09:18:54;0.00;0.00;0.62;0.00;0.00;0.62;1.70;1.17;;;22.20;21.30;;;;;;2268423;61;20387;-61
2023/03/17 09:21:39;0.00;0.00;0.62;0.00;0.00;0.62;2.27;1.00;;;22.20;21.30;;;;;;2267987;61;20949;-57
2023/03/17 09:24:24;0.00;0.00;0.62;0.00;0.00;0.62;1.60;1.00;;;22.20;21.30;;;;;;2268691;61;20893;-58
2023/03/17 09:27:10;0.00;0.00;0.62;0.00;0.00;0.62;1.87;1.20;;;22.20;21.30;;;;;;2268696;61;20447;-60
2023/03/17 09:29:55;0.00;0.00;0.62;0.00;0.00;0.62;2.30;1.20;;;22.20;21.30;;;;;;2267655;61;20394;-60
2023/03/17 09:32:41;0.00;0.00;0.62;0.00;0.00;0.62;2.30;1.40;;;22.20;21.30;;;;;;2268714;61;20411;-59
2023/03/17 09:35:30;0.00;0.00;0.62;0.00;0.00;0.62;1.70;1.00;;;22.20;21.30;;;;;;2268699;61;20968;-58
2023/03/17 09:38:15;0.00;0.00;0.62;0.00;0.00;0.62;1.60;1.07;;;22.20;21.30;;;;;;2268866;61;20378;-57
2023/03/17 09:41:29;0.00;0.00;0.62;0.00;0.00;0.62;1.70;1.17;;;22.20;21.30;;;;;;2268437;61;20410;-56
2023/03/17 09:44:27;0.00;0.00;0.62;0.00;0.00;0.62;2.20;1.30;;;22.30;21.40;;;;;;2267913;61;20933;-60
2023/03/17 09:47:35;0.00;0.00;0.62;0.00;0.00;0.62;1.80;1.30;;;22.20;21.40;;;;;;2268738;61;20425;-60
2023/03/17 09:50:26;0.00;0.00;0.62;0.00;0.00;0.62;1.80;1.00;;;22.30;21.40;;;;;;2268181;61;20441;-57
2023/03/17 09:53:18;0.00;0.00;0.62;0.00;0.00;0.62;2.30;1.50;;;22.30;21.40;;;;;;2268677;61;20359;-59
2023/03/17 09:56:10;0.00;0.00;0.62;0.00;0.00;0.62;2.10;1.30;;;22.30;21.40;;;;;;2268444;61;20973;-56
2023/03/17 09:58:59;0.00;0.00;0.62;0.00;0.00;0.62;1.90;1.43;;;22.30;21.50;;;;;;2267624;61;20360;-62
2023/03/17 10:01:44;0.00;0.00;0.62;0.00;0.00;0.62;1.70;1.20;;;22.30;21.40;;;;;;2268653;61;20420;-60
2023/03/17 10:04:29;0.00;0.00;0.62;0.00;0.00;0.62;2.10;1.20;;;22.40;21.50;;;;;;2268710;61;20419;-55
2023/03/17 10:07:21;0.00;0.00;0.62;0.00;0.00;0.62;1.93;1.17;;;22.40;22.10;;;;;;2267961;61;20363;-59
2023/03/17 10:10:14;0.00;0.00;0.62;0.00;0.00;0.62;1.60;1.20;;;22.40;21.50;;;;;;2268103;61;20484;-57
2023/03/17 10:13:13;0.00;0.00;0.62;0.00;0.00;0.62;2.00;1.53;;;22.40;21.50;;;;;;2267997;61;20849;-60
2023/03/17 10:16:04;0.00;0.00;0.62;0.00;0.00;0.62;2.70;2.10;;;22.40;21.50;;;;;;2268560;61;20425;-57
2023/03/17 10:18:54;0.00;0.00;0.62;0.00;0.00;0.62;2.00;1.60;;;22.50;21.60;;;;;;2268549;61;20782;-58
2023/03/17 10:21:48;0.00;0.00;0.62;0.00;0.00;0.62;2.27;1.53;;;22.50;21.60;;;;;;2268030;61;20379;-58
2023/03/17 10:24:42;0.00;0.00;0.62;0.00;0.00;0.62;2.63;1.47;;;22.50;21.70;;;;;;2268422;61;20429;-61
2023/03/17 10:27:27;0.00;0.00;0.62;0.00;0.00;0.62;2.77;2.00;;;22.50;21.60;;;;;;2268463;61;20363;-60
2023/03/17 10:30:16;0.00;0.00;0.62;0.00;0.00;0.62;2.23;1.47;;;22.50;21.60;;;;;;2267855;61;20793;-58
2023/03/17 10:33:07;0.00;0.00;0.62;0.00;0.00;0.62;2.20;1.70;;;22.50;21.60;;;;;;2268748;61;20406;-58
2023/03/17 10:35:52;0.00;0.00;0.62;0.00;0.00;0.62;2.67;1.70;;;22.60;21.70;;;;;;2267489;61;20407;-56
2023/03/17 10:38:37;0.00;0.00;0.62;0.00;0.00;0.62;2.80;2.00;;;22.60;21.70;;;;;;2268074;61;20486;-61
2023/03/17 10:41:24;0.00;0.00;0.62;0.00;0.00;0.62;1.90;1.30;;;22.60;21.70;;;;;;2268290;61;20362;-55
2023/03/17 10:44:20;0.00;0.00;0.62;0.00;0.00;0.62;2.30;1.60;;;22.60;21.70;;;;;;2267640;61;20367;-59
2023/03/17 10:47:18;0.00;0.00;0.62;0.00;0.00;0.62;2.30;1.57;;;22.60;21.70;;;;;;2268396;61;20447;-57
2023/03/17 10:50:23;0.00;0.00;0.62;0.00;0.00;0.62;2.80;1.90;;;22.70;21.80;;;;;;2266957;61;20478;-60
2023/03/17 10:53:18;0.00;0.00;0.62;0.00;0.00;0.62;2.60;1.93;;;22.70;21.80;;;;;;2268456;61;20781;-58
2023/03/17 10:56:08;0.00;0.00;0.62;0.00;0.00;0.62;2.47;1.83;;;22.70;21.80;;;;;;2268526;61;20572;-60
2023/03/17 10:58:55;0.00;0.00;0.62;0.00;0.00;0.62;2.43;1.70;;;22.70;21.80;;;;;;2267531;61;20382;-60